Time;durP1;ratioP1;P1;durP2;ratioP2;P2;SDS_P1;SDS_P2;PMS_P1;PMS_P2;Temp;Humidity;BMP_temperature;BMP_pressure;BME280_temperature;BME280_humidity;BME280_pressure;Samples;Min_cycle;Max_cycle;Signal;HPM_P1;HPM_P2
2022/06/02 00:00:20;;;;;;;10.60;9.48;;;8.40;87.30;;;;;;5029544;28;20053;-42
2022/06/02 00:03:19;;;;;;;11.43;9.90;;;8.40;87.40;;;;;;5030249;28;20108;-42
2022/06/02 00:05:50;;;;;;;11.02;8.93;;;8.40;87.30;;;;;;5009122;28;20045;-41
2022/06/02 00:08:32;;;;;;;9.82;8.82;;;8.30;87.50;;;;;;5025641;28;20395;-43
2022/06/02 00:11:49;;;;;;;11.70;8.77;;;8.30;87.50;;;;;;5042430;28;20061;-42
2022/06/02 00:14:43;;;;;;;17.08;11.15;;;8.20;87.50;;;;;;5032281;28;20436;-42
2022/06/02 00:17:32;;;;;;;10.00;8.60;;;8.20;87.50;;;;;;5030363;28;20583;-41
2022/06/02 00:20:05;;;;;;;10.93;9.82;;;8.10;87.70;;;;;;5034698;28;20097;-43
2022/06/02 00:22:41;;;;;;;10.32;8.63;;;8.10;87.80;;;;;;5036072;28;20235;-42
2022/06/02 00:25:24;;;;;;;13.27;9.40;;;8.10;87.80;;;;;;5032400;28;20331;-41
2022/06/02 00:27:54;;;;;;;10.65;8.70;;;8.00;87.80;;;;;;5042920;28;20129;-42
2022/06/02 00:30:24;;;;;;;11.68;9.05;;;8.00;87.90;;;;;;5045675;28;20029;-43
2022/06/02 00:33:08;;;;;;;11.57;9.98;;;8.00;88.00;;;;;;5048990;28;20576;-40
2022/06/02 00:35:59;;;;;;;13.27;10.00;;;8.00;87.90;;;;;;5048734;28;20378;-43
2022/06/02 00:38:31;;;;;;;12.52;9.32;;;7.90;88.10;;;;;;5032416;28;20033;-42
2022/06/02 00:41:04;;;;;;;11.25;9.90;;;7.90;88.00;;;;;;5031763;28;20033;-41
2022/06/02 00:43:33;;;;;;;13.10;9.95;;;7.90;88.10;;;;;;5021469;28;20349;-42
2022/06/02 00:46:29;;;;;;;10.70;9.20;;;7.90;88.10;;;;;;5051813;28;20131;-41
2022/06/02 00:49:33;;;;;;;10.57;8.95;;;7.90;88.20;;;;;;5041980;28;20057;-41
2022/06/02 00:52:13;;;;;;;10.98;9.65;;;7.90;88.20;;;;;;5018997;28;20735;-43
2022/06/02 00:58:05;;;;;;;10.70;9.60;;;7.90;88.30;;;;;;5029002;28;20072;-42
2022/06/02 01:00:48;;;;;;;12.70;9.63;;;7.90;88.40;;;;;;5026726;28;20116;-41
2022/06/02 01:03:23;;;;;;;13.85;10.15;;;7.90;88.40;;;;;;5048068;28;20109;-43
2022/06/02 01:06:23;;;;;;;12.80;9.40;;;7.90;88.40;;;;;;5051530;28;20048;-40
2022/06/02 01:09:46;;;;;;;10.85;9.73;;;7.90;88.50;;;;;;5027541;28;20037;-40
2022/06/02 01:12:43;;;;;;;12.20;10.13;;;7.90;88.40;;;;;;5027417;28;20108;-40
2022/06/02 01:16:05;;;;;;;10.50;9.20;;;7.90;88.50;;;;;;5005393;28;20022;-40
2022/06/02 01:19:02;;;;;;;13.85;10.18;;;7.90;88.50;;;;;;4948688;28;20062;-42
2022/06/02 01:21:51;;;;;;;11.23;9.80;;;7.80;88.50;;;;;;4935653;29;20042;-40
2022/06/02 01:24:31;;;;;;;10.88;9.77;;;7.80;88.50;;;;;;4997249;28;20073;-43
2022/06/02 01:27:30;;;;;;;15.63;11.10;;;7.80;88.50;;;;;;5008810;28;20045;-41
2022/06/02 01:30:10;;;;;;;12.13;9.57;;;7.90;88.50;;;;;;5015926;28;20037;-40
2022/06/02 01:32:58;;;;;;;11.35;10.13;;;7.90;88.50;;;;;;5025673;28;20802;-41
2022/06/02 01:35:44;;;;;;;13.32;9.95;;;7.90;88.30;;;;;;5010997;28;20037;-40
2022/06/02 01:38:31;;;;;;;13.25;10.65;;;7.90;88.40;;;;;;5023543;28;20037;-40
2022/06/02 01:41:08;;;;;;;11.88;10.63;;;7.80;88.50;;;;;;4996088;28;20026;-41
2022/06/02 01:43:50;;;;;;;10.02;8.90;;;7.90;88.40;;;;;;5045887;28;20044;-42
2022/06/02 01:46:28;;;;;;;11.80;9.77;;;7.90;88.40;;;;;;5032628;28;20036;-41
2022/06/02 01:49:11;;;;;;;14.23;10.20;;;7.80;88.20;;;;;;5035760;28;20040;-40
2022/06/02 01:51:58;;;;;;;11.07;8.75;;;7.80;88.30;;;;;;5013527;28;20801;-41
2022/06/02 01:54:23;;;;;;;9.75;8.70;;;7.80;88.20;;;;;;5048677;28;20049;-42
2022/06/02 01:57:07;;;;;;;18.13;10.10;;;7.80;88.30;;;;;;5047255;28;20075;-40
2022/06/02 02:00:00;;;;;;;11.48;9.35;;;7.80;88.20;;;;;;5037900;28;20030;-41
2022/06/02 02:02:47;;;;;;;10.68;9.02;;;7.80;88.40;;;;;;5035514;28;20029;-42
2022/06/02 02:05:47;;;;;;;10.90;8.68;;;7.80;88.40;;;;;;5029383;28;20112;-41
2022/06/02 02:08:44;;;;;;;12.82;9.02;;;7.90;88.50;;;;;;5043318;28;20068;-41
2022/06/02 02:11:31;;;;;;;9.73;8.70;;;7.90;88.40;;;;;;5029825;28;20469;-41
2022/06/02 02:14:21;;;;;;;11.80;8.70;;;7.90;88.30;;;;;;5036560;28;20045;-41
2022/06/02 02:17:13;;;;;;;10.43;8.85;;;8.00;88.30;;;;;;5027866;28;20013;-41
2022/06/02 02:20:06;;;;;;;10.52;8.40;;;8.10;88.30;;;;;;5027676;28;20116;-43
2022/06/02 02:22:52;;;;;;;11.73;9.60;;;8.10;88.30;;;;;;5027557;28;20055;-41
2022/06/02 02:25:26;;;;;;;11.90;8.85;;;8.10;88.30;;;;;;5028170;28;20373;-42
2022/06/02 02:28:12;;;;;;;8.88;7.72;;;8.20;88.30;;;;;;5029259;28;20482;-40
2022/06/02 02:30:51;;;;;;;10.18;8.52;;;8.30;88.30;;;;;;5029319;28;20113;-40
2022/06/02 02:33:22;;;;;;;11.30;9.13;;;8.30;88.20;;;;;;5026903;28;20060;-41
2022/06/02 02:36:17;;;;;;;10.80;8.88;;;8.30;88.20;;;;;;5028996;28;20040;-40
2022/06/02 02:38:59;;;;;;;9.45;8.15;;;8.30;88.30;;;;;;5026040;28;20393;-40
2022/06/02 02:41:36;;;;;;;8.60;7.63;;;8.40;88.30;;;;;;5027169;28;20037;-42
2022/06/02 02:44:10;;;;;;;7.93;6.82;;;8.40;88.50;;;;;;5025406;28;20061;-40
2022/06/02 02:46:49;;;;;;;10.02;7.53;;;8.40;88.40;;;;;;5028416;28;20033;-41
2022/06/02 02:49:55;;;;;;;9.05;7.25;;;8.50;88.30;;;;;;5028547;28;20389;-42
2022/06/02 02:52:38;;;;;;;11.07;7.47;;;8.40;88.00;;;;;;5028779;28;20377;-41
2022/06/02 02:55:31;;;;;;;7.50;6.70;;;8.50;88.10;;;;;;5026727;28;20303;-46
2022/06/02 02:58:20;;;;;;;9.30;6.97;;;8.50;88.10;;;;;;5028061;28;20040;-41
2022/06/02 03:01:04;;;;;;;8.10;6.35;;;8.50;87.90;;;;;;5043981;28;20086;-41
2022/06/02 03:03:59;;;;;;;10.70;7.00;;;8.50;87.70;;;;;;5048429;28;20473;-41
2022/06/02 03:06:32;;;;;;;8.82;7.30;;;8.50;87.70;;;;;;5043945;28;20021;-46
2022/06/02 03:09:10;;;;;;;8.05;7.05;;;8.50;87.70;;;;;;5029689;28;20445;-40
2022/06/02 03:11:56;;;;;;;7.57;6.18;;;8.50;87.60;;;;;;5028390;28;20075;-40
2022/06/02 03:14:46;;;;;;;7.72;6.47;;;8.40;87.60;;;;;;5009613;28;20030;-41
2022/06/02 03:17:14;;;;;;;7.63;6.63;;;8.40;87.80;;;;;;5026960;28;20328;-40
2022/06/02 03:19:45;;;;;;;8.40;6.20;;;8.40;87.80;;;;;;5027942;28;20025;-43
2022/06/02 03:22:16;;;;;;;8.27;5.90;;;8.40;87.80;;;;;;5044323;28;20063;-45
2022/06/02 03:25:08;;;;;;;7.75;6.45;;;8.40;87.90;;;;;;5049096;28;20029;-44
2022/06/02 03:27:44;;;;;;;9.13;6.70;;;8.30;87.90;;;;;;5030962;28;20316;-40
2022/06/02 03:30:21;;;;;;;6.72;6.03;;;8.30;88.00;;;;;;5048347;28;20346;-42
2022/06/02 03:32:52;;;;;;;7.28;6.20;;;8.30;88.10;;;;;;5026088;28;20045;-41
2022/06/02 03:35:55;;;;;;;8.50;6.88;;;8.30;88.20;;;;;;5033897;28;20030;-42
2022/06/02 03:38:36;;;;;;;7.75;5.97;;;8.30;88.20;;;;;;4990812;28;20034;-42
2022/06/02 03:41:29;;;;;;;6.70;5.60;;;8.40;88.10;;;;;;5028811;28;20021;-40
2022/06/02 03:44:02;;;;;;;8.75;6.70;;;8.40;88.10;;;;;;5045182;28;20108;-41
2022/06/02 03:46:50;;;;;;;12.27;6.53;;;8.40;88.00;;;;;;5051192;28;20346;-42
2022/06/02 03:49:48;;;;;;;8.57;6.00;;;8.30;88.10;;;;;;5046226;28;20021;-40
2022/06/02 03:52:22;;;;;;;7.68;6.88;;;8.40;88.20;;;;;;5037027;28;20037;-41
2022/06/02 03:55:31;;;;;;;7.15;5.72;;;8.40;88.20;;;;;;5052566;28;20100;-43
2022/06/02 03:58:06;;;;;;;7.40;6.07;;;8.40;88.30;;;;;;5037054;28;20040;-41
2022/06/02 04:00:44;;;;;;;8.50;5.50;;;8.40;88.10;;;;;;5043935;28;20037;-40
2022/06/02 04:03:14;;;;;;;6.20;5.53;;;8.40;88.30;;;;;;5050740;28;20312;-41
2022/06/02 04:06:06;;;;;;;13.40;6.28;;;8.40;88.20;;;;;;5039001;28;20068;-41
2022/06/02 04:08:53;;;;;;;7.00;5.30;;;8.50;88.20;;;;;;5031369;28;20637;-40
2022/06/02 04:13:37;;;;;;;6.72;5.20;;;8.50;88.30;;;;;;5029862;28;20449;-42
2022/06/02 04:14:57;;;;;;;6.65;5.40;;;8.60;88.40;;;;;;5030274;28;20417;-43
2022/06/02 04:17:31;;;;;;;8.32;5.40;;;8.70;88.40;;;;;;5031412;28;20047;-40
2022/06/02 04:23:01;;;;;;;7.63;5.57;;;8.90;88.40;;;;;;5033112;28;20374;-43
2022/06/02 04:26:01;;;;;;;7.25;5.35;;;9.00;88.30;;;;;;5030028;28;20060;-40
2022/06/02 04:28:41;;;;;;;7.85;5.05;;;9.20;88.30;;;;;;5032594;28;20037;-42
2022/06/02 04:31:44;;;;;;;8.60;5.28;;;9.20;88.10;;;;;;5031289;28;20029;-40
2022/06/02 04:34:28;;;;;;;6.15;4.50;;;9.30;88.00;;;;;;5029343;28;20021;-40
2022/06/02 04:37:17;;;;;;;7.75;4.78;;;9.40;87.90;;;;;;5031098;28;20387;-40
2022/06/02 04:39:48;;;;;;;6.15;4.70;;;9.40;87.80;;;;;;5027363;28;20022;-40
2022/06/02 04:42:38;;;;;;;6.85;4.65;;;9.50;87.90;;;;;;5031033;28;20036;-42
2022/06/02 04:45:10;;;;;;;6.07;4.50;;;9.60;87.80;;;;;;5030671;28;20036;-44
2022/06/02 04:48:10;;;;;;;6.70;4.72;;;9.70;87.80;;;;;;5031964;28;20082;-41
2022/06/02 04:50:35;;;;;;;6.85;4.43;;;9.70;87.80;;;;;;5045391;28;20020;-40
2022/06/02 04:53:34;;;;;;;6.00;4.60;;;9.80;87.70;;;;;;5039890;28;20072;-40
2022/06/02 04:56:47;;;;;;;6.28;4.97;;;9.90;87.70;;;;;;5024115;28;20091;-40
2022/06/02 04:59:27;;;;;;;9.60;4.35;;;10.00;87.70;;;;;;5027670;28;20144;-42
2022/06/02 05:02:11;;;;;;;6.22;4.85;;;10.10;87.50;;;;;;5031157;28;20048;-40
2022/06/02 05:04:55;;;;;;;8.93;5.53;;;10.20;87.60;;;;;;5029277;28;20029;-46
2022/06/02 05:07:57;;;;;;;4.97;3.92;;;10.30;87.40;;;;;;5029246;28;20029;-40
2022/06/02 05:10:46;;;;;;;6.55;4.35;;;10.30;87.40;;;;;;5029240;28;20029;-40
2022/06/02 05:13:47;;;;;;;5.93;3.60;;;10.40;87.10;;;;;;5029764;28;20032;-44
2022/06/02 05:16:24;;;;;;;6.53;3.38;;;10.40;86.80;;;;;;5029092;28;20048;-41
2022/06/02 05:19:11;;;;;;;6.30;4.15;;;10.50;86.80;;;;;;5032353;28;20443;-41
2022/06/02 05:21:53;;;;;;;6.00;4.22;;;10.50;86.40;;;;;;5029348;28;20435;-41
2022/06/02 05:24:45;;;;;;;4.85;3.15;;;10.50;86.30;;;;;;5034294;28;20049;-41
2022/06/02 05:27:38;;;;;;;6.93;3.58;;;10.50;86.30;;;;;;5030268;28;20041;-41
2022/06/02 05:30:33;;;;;;;5.82;3.63;;;10.60;86.40;;;;;;5029578;28;20057;-41
2022/06/02 05:33:23;;;;;;;6.05;3.63;;;10.70;86.50;;;;;;5039524;28;20030;-41
2022/06/02 05:36:18;;;;;;;6.72;3.58;;;10.70;86.70;;;;;;5030642;28;20442;-41
2022/06/02 05:39:01;;;;;;;6.53;3.47;;;10.90;86.70;;;;;;5030126;28;20061;-41
2022/06/02 05:41:47;;;;;;;7.45;4.00;;;11.10;86.40;;;;;;5029103;28;20018;-42
2022/06/02 05:44:18;;;;;;;4.13;2.92;;;11.40;86.10;;;;;;5025726;28;20465;-43
2022/06/02 05:46:59;;;;;;;8.38;3.78;;;11.80;85.10;;;;;;5029387;28;20030;-43
2022/06/02 05:49:41;;;;;;;6.35;3.45;;;12.30;84.00;;;;;;5030679;28;20044;-41
2022/06/02 05:52:24;;;;;;;6.25;3.47;;;12.40;82.70;;;;;;5028330;28;20036;-41
2022/06/02 05:55:08;;;;;;;6.40;3.50;;;12.40;82.70;;;;;;5028132;28;20037;-41
2022/06/02 05:57:47;;;;;;;6.80;2.58;;;12.60;82.70;;;;;;5027324;28;20021;-43
2022/06/02 06:00:37;;;;;;;6.65;2.80;;;12.90;82.30;;;;;;5027871;28;20142;-44
2022/06/02 06:03:23;;;;;;;4.45;2.90;;;13.10;81.30;;;;;;5028151;28;20025;-41
2022/06/02 06:06:11;;;;;;;5.38;3.13;;;13.30;81.30;;;;;;5024215;28;20035;-42
2022/06/02 06:08:37;;;;;;;6.47;3.05;;;13.50;81.20;;;;;;5028956;28;20025;-42
2022/06/02 06:11:31;;;;;;;6.18;3.42;;;13.50;80.30;;;;;;5027573;28;20044;-43
2022/06/02 06:14:27;;;;;;;5.07;2.67;;;13.70;80.00;;;;;;5031155;28;20025;-44
2022/06/02 06:16:58;;;;;;;5.32;2.38;;;14.00;80.80;;;;;;5007909;28;20037;-47
2022/06/02 06:19:40;;;;;;;8.05;3.05;;;14.30;78.70;;;;;;5004000;28;20064;-44
2022/06/02 06:22:14;;;;;;;7.53;2.78;;;14.50;78.20;;;;;;5025439;28;20032;-44
2022/06/02 06:25:13;;;;;;;5.43;2.17;;;14.40;77.70;;;;;;5026072;28;20521;-43
2022/06/02 06:27:51;;;;;;;8.07;3.25;;;14.40;77.70;;;;;;5023612;28;20718;-44
2022/06/02 06:30:26;;;;;;;4.90;2.75;;;14.10;78.10;;;;;;5023769;28;20056;-44
2022/06/02 06:33:10;;;;;;;4.18;2.45;;;14.20;78.70;;;;;;5023432;28;20087;-43
2022/06/02 06:35:47;;;;;;;4.75;2.85;;;14.00;79.00;;;;;;5024577;28;20583;-47
2022/06/02 06:38:38;;;;;;;5.93;2.33;;;13.80;79.60;;;;;;5026454;28;20034;-43
2022/06/02 06:41:10;;;;;;;4.25;2.33;;;13.50;80.00;;;;;;5025007;28;20021;-44
2022/06/02 06:43:54;;;;;;;6.68;2.92;;;13.40;81.50;;;;;;5026234;28;20040;-43
2022/06/02 06:46:25;;;;;;;5.78;2.90;;;13.60;82.10;;;;;;5024534;28;20030;-44
2022/06/02 06:48:57;;;;;;;7.35;3.08;;;13.90;81.80;;;;;;5023970;28;20025;-43
2022/06/02 06:51:47;;;;;;;5.22;2.05;;;14.20;80.50;;;;;;5027329;28;20450;-45
2022/06/02 06:54:38;;;;;;;10.55;2.35;;;14.10;78.70;;;;;;5027499;28;20095;-44
2022/06/02 06:57:13;;;;;;;6.30;2.05;;;13.90;78.10;;;;;;5025082;28;20060;-45
2022/06/02 06:59:41;;;;;;;6.63;2.20;;;13.90;78.00;;;;;;5027659;28;20786;-45
2022/06/02 07:02:26;;;;;;;7.00;1.70;;;13.70;77.80;;;;;;5025751;28;20029;-45
2022/06/02 07:05:25;;;;;;;5.78;2.05;;;13.50;78.60;;;;;;5021141;28;20029;-44
2022/06/02 07:08:11;;;;;;;6.68;2.95;;;13.40;79.50;;;;;;5025583;28;20451;-43
2022/06/02 07:14:22;;;;;;;5.55;1.58;;;13.60;79.40;;;;;;5022983;28;20496;-44
2022/06/02 07:16:55;;;;;;;5.68;1.73;;;14.10;79.50;;;;;;5025721;28;20132;-43
2022/06/02 07:19:38;;;;;;;3.42;1.58;;;14.90;75.50;;;;;;5023191;28;20021;-44
2022/06/02 07:22:23;;;;;;;6.85;1.92;;;15.40;74.00;;;;;;5024860;28;20369;-45
2022/06/02 07:24:55;;;;;;;3.35;1.50;;;16.00;72.70;;;;;;5026878;28;20040;-47
2022/06/02 07:27:51;;;;;;;4.57;1.55;;;16.00;71.30;;;;;;5024184;28;20056;-44
2022/06/02 07:30:32;;;;;;;6.40;1.88;;;15.50;69.80;;;;;;5027709;28;20095;-45
2022/06/02 07:33:28;;;;;;;4.47;1.77;;;15.00;71.20;;;;;;5024429;28;20017;-46
2022/06/02 07:36:15;;;;;;;8.15;1.92;;;14.60;73.60;;;;;;5023725;28;20026;-47
2022/06/02 07:39:15;;;;;;;7.28;1.70;;;14.30;75.00;;;;;;5025470;28;20030;-43
2022/06/02 07:41:43;;;;;;;6.57;1.63;;;14.50;75.30;;;;;;5023273;28;20062;-46
2022/06/02 07:44:43;;;;;;;4.20;1.23;;;15.30;73.80;;;;;;5023678;28;20037;-44
2022/06/02 07:47:21;;;;;;;5.03;1.38;;;16.10;69.40;;;;;;5023944;28;20512;-46
2022/06/02 07:50:05;;;;;;;5.75;1.42;;;16.60;67.70;;;;;;5023858;28;20053;-44
2022/06/02 07:52:53;;;;;;;5.68;1.38;;;16.60;68.60;;;;;;5022748;28;20040;-47
2022/06/02 07:56:00;;;;;;;5.30;1.25;;;15.90;69.00;;;;;;5019795;28;20041;-49
2022/06/02 07:58:37;;;;;;;4.40;1.95;;;15.60;70.90;;;;;;5032783;28;20052;-45
2022/06/02 08:01:17;;;;;;;3.03;1.40;;;15.50;71.70;;;;;;5014934;28;20024;-45
2022/06/02 08:03:59;;;;;;;4.03;1.55;;;16.60;70.40;;;;;;5029656;28;20728;-49
2022/06/02 08:06:47;;;;;;;4.82;1.58;;;17.30;68.00;;;;;;5032944;28;20033;-45
2022/06/02 08:09:43;;;;;;;3.38;1.17;;;17.70;62.80;;;;;;5030726;28;20160;-44
2022/06/02 08:12:20;;;;;;;4.60;1.88;;;16.90;64.50;;;;;;5014436;28;20038;-45
2022/06/02 08:15:04;;;;;;;4.78;1.80;;;17.40;63.80;;;;;;5024054;28;20136;-43
2022/06/02 08:18:03;;;;;;;5.38;1.63;;;17.70;62.90;;;;;;5018687;28;20120;-45
2022/06/02 08:20:35;;;;;;;4.22;1.13;;;16.90;63.00;;;;;;5028095;28;20500;-46
2022/06/02 08:23:11;;;;;;;5.57;1.42;;;16.00;66.20;;;;;;5011554;28;20033;-47
2022/06/02 08:25:48;;;;;;;4.47;1.77;;;15.60;69.10;;;;;;5039610;28;20033;-48
2022/06/02 08:28:32;;;;;;;6.07;1.27;;;15.30;71.20;;;;;;5036159;28;20053;-47
2022/06/02 08:31:26;;;;;;;4.25;1.70;;;15.00;71.20;;;;;;5038932;28;20117;-48
2022/06/02 08:34:01;;;;;;;4.75;1.48;;;14.90;72.60;;;;;;4990152;28;20076;-46
2022/06/02 08:36:39;;;;;;;4.05;1.33;;;14.70;73.30;;;;;;5027711;28;20100;-43
2022/06/02 08:39:12;;;;;;;6.10;1.38;;;14.80;72.10;;;;;;5028336;28;20036;-46
2022/06/02 08:41:49;;;;;;;9.20;1.55;;;14.90;72.60;;;;;;5025944;28;20057;-44
2022/06/02 08:44:33;;;;;;;4.00;1.75;;;15.90;70.10;;;;;;5027336;28;20078;-46
2022/06/02 08:47:10;;;;;;;5.30;1.70;;;16.50;65.80;;;;;;5031694;28;20034;-44
2022/06/02 08:50:09;;;;;;;4.65;1.17;;;16.10;66.20;;;;;;5028513;28;20030;-44
2022/06/02 08:53:13;;;;;;;2.33;1.20;;;16.20;68.00;;;;;;5026508;28;20029;-44
2022/06/02 08:56:06;;;;;;;3.28;1.20;;;17.40;65.70;;;;;;5026612;28;20524;-44
2022/06/02 08:58:59;;;;;;;5.45;1.20;;;16.90;63.00;;;;;;5025431;28;20025;-43
2022/06/02 09:01:45;;;;;;;3.38;1.13;;;16.40;64.00;;;;;;5023952;28;20347;-43
2022/06/02 09:04:29;;;;;;;4.65;1.67;;;16.10;64.80;;;;;;5026015;28;20119;-46
2022/06/02 09:07:06;;;;;;;3.85;1.30;;;15.80;67.10;;;;;;5025684;28;20026;-43
2022/06/02 09:09:50;;;;;;;8.00;1.63;;;15.50;69.30;;;;;;5027491;28;20103;-43
2022/06/02 09:12:46;;;;;;;5.00;2.08;;;15.90;69.10;;;;;;5027118;28;20025;-45
2022/06/02 09:15:50;;;;;;;6.38;1.50;;;16.20;69.00;;;;;;5029384;28;20124;-45
2022/06/02 09:18:17;;;;;;;4.47;1.52;;;15.90;68.10;;;;;;5026349;28;20033;-45
2022/06/02 09:21:08;;;;;;;4.13;1.50;;;15.60;69.70;;;;;;5024702;28;20029;-43
2022/06/02 09:24:00;;;;;;;4.50;1.45;;;15.60;70.20;;;;;;5026011;28;20082;-44
2022/06/02 09:26:41;;;;;;;5.20;1.40;;;16.40;67.90;;;;;;5027702;28;20119;-44
2022/06/02 09:29:54;;;;;;;7.43;1.95;;;16.90;65.50;;;;;;5026730;28;20037;-45
2022/06/02 09:32:41;;;;;;;4.07;1.48;;;17.60;65.20;;;;;;5024415;28;20805;-44
2022/06/02 09:35:38;;;;;;;5.53;1.75;;;17.50;61.60;;;;;;5024948;28;20052;-45
2022/06/02 09:38:38;;;;;;;6.05;1.48;;;16.80;64.00;;;;;;5026001;28;20091;-43
2022/06/02 09:41:33;;;;;;;3.42;1.83;;;16.60;66.30;;;;;;5024605;28;20025;-44
2022/06/02 09:44:27;;;;;;;5.15;1.30;;;16.90;67.40;;;;;;5028941;28;20030;-44
2022/06/02 09:47:17;;;;;;;5.50;1.80;;;17.30;63.70;;;;;;5027373;28;20485;-44
2022/06/02 09:50:26;;;;;;;3.53;1.52;;;17.30;61.80;;;;;;5026183;28;20037;-44
2022/06/02 09:53:16;;;;;;;4.70;1.42;;;17.40;63.30;;;;;;5028787;28;20448;-48
2022/06/02 09:55:54;;;;;;;4.97;1.83;;;16.70;64.90;;;;;;5028149;28;20501;-44
2022/06/02 09:58:51;;;;;;;4.50;1.30;;;16.30;66.20;;;;;;5026544;28;20344;-43
2022/06/02 10:01:40;;;;;;;2.90;1.25;;;16.40;67.40;;;;;;5025315;28;20191;-43
2022/06/02 10:04:43;;;;;;;6.45;1.42;;;16.40;67.90;;;;;;5025339;28;20041;-44
2022/06/02 10:07:21;;;;;;;5.80;2.05;;;16.10;67.50;;;;;;5025021;28;20457;-45
2022/06/02 10:10:21;;;;;;;3.75;1.17;;;15.80;68.00;;;;;;5023059;28;20033;-44
2022/06/02 10:13:15;;;;;;;9.00;2.83;;;16.40;67.40;;;;;;5024595;28;20026;-48
2022/06/02 10:16:18;;;;;;;7.30;1.90;;;16.20;65.70;;;;;;5025445;28;20060;-45
2022/06/02 10:18:57;;;;;;;6.47;1.65;;;15.90;68.10;;;;;;5024763;28;20033;-46
2022/06/02 10:21:44;;;;;;;;;;;16.80;69.10;;;;;;5025351;28;20037;-45
2022/06/02 10:24:51;;;;;;;4.78;1.60;;;17.60;65.70;;;;;;5023406;28;20072;-45
2022/06/02 10:27:43;;;;;;;5.60;1.73;;;18.50;60.90;;;;;;5009781;28;20056;-45
2022/06/02 10:30:23;;;;;;;6.65;1.92;;;19.10;59.50;;;;;;5025602;28;20509;-46
2022/06/02 10:33:23;;;;;;;8.32;1.73;;;18.90;59.20;;;;;;5025762;28;20083;-47
2022/06/02 10:36:10;;;;;;;13.88;2.53;;;18.60;60.80;;;;;;5026175;28;20036;-44
2022/06/02 10:38:45;;;;;;;7.80;1.60;;;17.90;61.90;;;;;;5026290;28;20121;-45
2022/06/02 10:41:43;;;;;;;4.53;1.60;;;18.00;60.70;;;;;;5025331;28;20085;-45
2022/06/02 10:44:15;;;;;;;4.75;1.90;;;17.90;60.80;;;;;;5031518;28;20033;-44
2022/06/02 10:47:18;;;;;;;7.43;1.80;;;17.70;62.60;;;;;;4999983;28;20068;-46
2022/06/02 10:50:08;;;;;;;4.18;1.73;;;18.10;61.90;;;;;;5024925;28;20057;-46
2022/06/02 10:52:48;;;;;;;4.30;1.45;;;17.90;63.30;;;;;;5024071;28;20127;-45
2022/06/02 10:55:33;;;;;;;5.05;1.85;;;17.50;61.80;;;;;;5025700;28;20037;-44
2022/06/02 10:58:34;;;;;;;7.15;1.67;;;17.30;62.90;;;;;;5026566;28;20653;-44
2022/06/02 11:01:34;;;;;;;7.05;1.65;;;16.90;64.50;;;;;;4986979;28;20566;-44
2022/06/02 11:04:25;;;;;;;8.55;2.13;;;17.40;65.00;;;;;;5025100;28;20079;-47
2022/06/02 11:07:28;;;;;;;5.28;1.95;;;17.80;63.20;;;;;;5018548;28;20072;-45
2022/06/02 11:10:29;;;;;;;3.55;1.30;;;17.50;62.80;;;;;;5013046;28;20056;-48
2022/06/02 11:13:26;;;;;;;4.45;1.50;;;17.60;61.40;;;;;;5012028;28;20033;-44
2022/06/02 11:16:49;;;;;;;5.43;1.73;;;17.90;59.90;;;;;;5026772;28;20036;-43
2022/06/02 11:19:33;;;;;;;5.60;1.83;;;18.30;59.80;;;;;;5007010;28;20030;-46
2022/06/02 11:22:24;;;;;;;3.85;1.60;;;17.90;60.80;;;;;;4986674;28;20022;-44
2022/06/02 11:24:56;;;;;;;5.15;1.90;;;17.50;62.50;;;;;;5018465;28;20547;-44
2022/06/02 11:27:52;;;;;;;8.35;2.03;;;17.80;65.30;;;;;;5023643;28;20034;-44
2022/06/02 11:30:51;;;;;;;5.13;1.50;;;17.80;62.20;;;;;;5026528;28;20124;-44
2022/06/02 11:33:22;;;;;;;7.93;1.67;;;17.80;62.00;;;;;;5025348;28;20361;-44
2022/06/02 11:36:12;;;;;;;5.38;1.95;;;17.40;62.30;;;;;;5026090;28;20288;-45
2022/06/02 11:38:57;;;;;;;4.78;1.77;;;17.60;61.90;;;;;;5022976;28;20041;-43
2022/06/02 11:41:32;;;;;;;6.00;1.38;;;18.30;62.70;;;;;;5025321;28;20048;-45
2022/06/02 11:44:08;;;;;;;7.95;2.33;;;18.70;60.30;;;;;;5021500;28;20044;-48
2022/06/02 11:46:53;;;;;;;6.68;1.98;;;18.80;60.20;;;;;;5020255;28;20496;-44
2022/06/02 11:49:40;;;;;;;4.80;1.60;;;18.70;60.20;;;;;;5023822;28;20112;-46
2022/06/02 11:52:39;;;;;;;6.72;1.60;;;18.60;58.90;;;;;;5023693;28;20080;-48
2022/06/02 11:55:26;;;;;;;6.38;1.88;;;18.40;60.00;;;;;;5023691;28;20410;-43
2022/06/02 11:58:56;;;;;;;4.68;1.88;;;18.30;61.00;;;;;;5024915;28;20021;-46
2022/06/02 12:01:37;;;;;;;4.43;1.50;;;18.30;62.40;;;;;;4968573;28;20037;-45
2022/06/02 12:04:21;;;;;;;4.72;1.25;;;18.50;61.00;;;;;;5024422;28;20033;-44
2022/06/02 12:06:54;;;;;;;4.78;1.80;;;18.40;59.60;;;;;;5024398;28;20512;-46
2022/06/02 12:09:33;;;;;;;4.22;1.58;;;18.50;61.40;;;;;;5027660;28;20455;-44
2022/06/02 12:12:41;;;;;;;4.03;1.53;;;17.90;62.00;;;;;;5029534;28;20132;-47
2022/06/02 12:15:34;;;;;;;7.25;2.10;;;18.00;64.10;;;;;;5031174;28;20044;-48
2022/06/02 12:18:08;;;;;;;4.10;1.40;;;18.00;64.10;;;;;;5025616;28;20087;-44
2022/06/02 12:21:04;;;;;;;5.75;2.08;;;18.10;62.50;;;;;;5027986;28;20049;-46
2022/06/02 12:24:28;;;;;;;6.95;1.85;;;18.20;61.00;;;;;;5026945;28;20025;-45
2022/06/02 12:27:05;;;;;;;8.07;1.75;;;18.20;61.40;;;;;;4996620;28;20046;-46
2022/06/02 12:29:42;;;;;;;5.32;1.88;;;18.30;61.90;;;;;;5030047;28;20029;-45
2022/06/02 12:32:13;;;;;;;4.93;1.60;;;18.20;61.00;;;;;;5028501;28;21153;-46
2022/06/02 12:35:05;;;;;;;6.38;3.03;;;17.90;61.70;;;;;;5027425;28;20037;-43
2022/06/02 12:37:49;;;;;;;4.38;2.13;;;17.50;63.10;;;;;;5024531;28;20168;-45
2022/06/02 12:40:32;;;;;;;4.38;1.88;;;17.60;63.20;;;;;;5027526;28;20025;-45
2022/06/02 12:43:43;;;;;;;8.63;2.22;;;17.70;64.90;;;;;;5024043;28;20040;-44
2022/06/02 12:46:32;;;;;;;5.15;1.85;;;17.90;62.90;;;;;;5026764;28;20114;-44
2022/06/02 12:49:16;;;;;;;5.57;2.10;;;18.00;64.40;;;;;;5025679;28;20478;-44
2022/06/02 12:51:45;;;;;;;8.02;2.13;;;18.00;62.70;;;;;;5029403;28;20272;-45
2022/06/02 12:54:47;;;;;;;7.25;2.20;;;18.00;64.10;;;;;;5026501;28;20054;-46
2022/06/02 12:57:44;;;;;;;7.65;2.10;;;18.10;63.80;;;;;;5023118;28;20040;-48
2022/06/02 13:00:22;;;;;;;4.93;1.30;;;17.50;64.00;;;;;;5026861;28;20585;-44
2022/06/02 13:03:15;;;;;;;6.07;2.40;;;17.90;64.30;;;;;;5027656;28;20025;-46
2022/06/02 13:05:47;;;;;;;5.07;1.98;;;17.70;62.80;;;;;;5026195;28;20048;-48
2022/06/02 13:08:50;;;;;;;6.45;2.22;;;17.70;64.40;;;;;;5026774;28;20029;-44
2022/06/02 13:11:25;;;;;;;7.65;2.22;;;17.80;63.30;;;;;;5025888;28;20032;-45
2022/06/02 13:14:25;;;;;;;5.38;1.58;;;17.60;62.50;;;;;;5025600;28;20036;-46
2022/06/02 13:17:12;;;;;;;6.40;2.15;;;17.60;63.30;;;;;;5025001;28;20037;-46
2022/06/02 13:19:55;;;;;;;4.32;1.63;;;17.50;62.90;;;;;;5026724;28;20042;-50
2022/06/02 13:22:40;;;;;;;7.22;2.00;;;17.50;63.70;;;;;;5029250;28;20464;-46
2022/06/02 13:25:30;;;;;;;5.15;2.15;;;17.50;64.90;;;;;;5028622;28;20041;-45
2022/06/02 13:28:27;;;;;;;6.53;1.70;;;17.60;63.10;;;;;;5032262;28;20062;-45
2022/06/02 13:31:12;;;;;;;4.40;1.88;;;17.60;63.50;;;;;;5040568;28;20033;-46
2022/06/02 13:33:57;;;;;;;3.42;1.90;;;17.60;62.90;;;;;;5026319;28;20351;-44
2022/06/02 13:36:50;;;;;;;9.07;2.38;;;17.60;64.20;;;;;;5039136;28;20037;-47
2022/06/02 13:39:34;;;;;;;5.60;2.05;;;17.50;63.80;;;;;;5021648;28;20025;-46
2022/06/02 13:42:13;;;;;;;6.70;1.85;;;17.40;64.00;;;;;;5027716;28;20036;-47
2022/06/02 13:45:04;;;;;;;7.70;2.42;;;17.20;63.50;;;;;;5015003;28;20446;-48
2022/06/02 13:47:49;;;;;;;6.28;2.15;;;17.30;64.40;;;;;;5015325;28;20048;-44
2022/06/02 13:50:29;;;;;;;9.18;2.63;;;17.40;64.80;;;;;;5012217;28;20081;-46
2022/06/02 13:53:26;;;;;;;6.05;3.30;;;17.30;63.70;;;;;;5020684;28;20355;-47
2022/06/02 13:59:37;;;;;;;7.10;2.22;;;17.40;64.00;;;;;;5022434;28;20048;-45
2022/06/02 14:02:11;;;;;;;8.15;3.15;;;17.30;63.00;;;;;;5028068;28;20076;-43
2022/06/02 14:05:04;;;;;;;7.10;2.92;;;17.40;65.30;;;;;;5025995;28;20021;-44
2022/06/02 14:07:50;;;;;;;5.68;2.55;;;17.40;65.20;;;;;;5021122;28;20033;-44
2022/06/02 14:10:34;;;;;;;6.63;3.95;;;17.40;65.30;;;;;;5027032;28;20026;-43
2022/06/02 14:13:17;;;;;;;5.55;2.72;;;17.40;63.80;;;;;;5024487;28;20026;-45
2022/06/02 14:16:06;;;;;;;8.38;3.53;;;17.40;65.00;;;;;;5023160;28;20406;-44
2022/06/02 14:18:50;;;;;;;6.25;2.75;;;17.50;62.80;;;;;;5019060;28;20032;-44
2022/06/02 14:21:26;;;;;;;9.50;2.65;;;17.40;63.90;;;;;;5013395;28;20450;-44
2022/06/02 14:23:59;;;;;;;8.55;2.80;;;17.30;63.80;;;;;;5021500;28;20018;-44
2022/06/02 14:26:43;;;;;;;4.97;2.20;;;17.40;62.10;;;;;;5024190;28;20029;-46
2022/06/02 14:29:31;;;;;;;7.68;2.88;;;17.30;63.00;;;;;;5021435;28;20028;-47
2022/06/02 14:32:26;;;;;;;8.00;2.25;;;17.30;62.60;;;;;;5009745;28;20338;-46
2022/06/02 14:35:04;;;;;;;7.25;2.40;;;17.20;63.30;;;;;;5022941;28;20040;-47
2022/06/02 14:38:12;;;;;;;11.00;2.75;;;17.20;64.10;;;;;;5024343;28;20029;-44
2022/06/02 14:40:54;;;;;;;8.75;2.22;;;17.30;61.90;;;;;;5011222;28;20060;-46